Skip Navigation LinksHome page > Weather > Current weather Skip Navigation Links

Current Weather

Phoenix Sky Harbor Intl, Phoenix, Ariz.

For information only: do not use for flight planning or navigation.
Latest weather
Observation time Tuesday, September 28, 2021 1:51 AM MST
Local time Tuesday, September 28, 2021 2:53 AM MST
Flight conditions Visual Meteorological Conditions
Winds
Wind speed calm
Visibility 10 mi.
Sky condition
Ceiling 8,000 ft. broken clouds
Cloud layer few clouds 6,500 ft.
Cloud layer broken clouds 8,000 ft.
Cloud layer broken clouds 10,000 ft.
Temperature 78°F
Dewpoint 61°F
Altimeter 29.86 in.Hg
Pressure change last 3 hours0.01 in.Hg
Pressure falling, then rising
Derived measurements
Relative humidity 56%
Heat index 78°F
Density altitude 2683 ft.
Sea-level pressure 29.80 in.Hg
Remarks
Automated weather observing station with precipitation discriminator.
METAR KPHX 280851Z 00000KT 10SM FEW065 BKN080 BKN100 26/16 A2986 RMK AO2 SLP093 T02560161 55002

Settings

Location code

InnerDrive.Weather 4.0.6770.0 Release CLR 4.0.30319.42000
Copyright ©2018 Inner Drive Technology. All rights reserved. Portions Copyright ©1986-2018 David Braverman.

Find weather

Site navigation


Skip Navigation Links

Place info

Page info

PayPal - The safer, easier way to pay online!

Return home.

Copyright ©2021 Inner Drive Technology. Purveyors of fine, hand-crafted computer software. Page printed 2021-09-28T09:53:41 UTC.